Time;durP1;ratioP1;P1;durP2;ratioP2;P2;SDS_P1;SDS_P2;PMS_P1;PMS_P2;Temp;Humidity;BMP_temperature;BMP_pressure;BME280_temperature;BME280_humidity;BME280_pressure;Samples;Min_cycle;Max_cycle;Signal;HPM_P1;HPM_P2
2023/10/16 00:00:33;;;;;;;6.20;1.73;;;4.70;99.90;;;;;;5016406;28;20476;-69
2023/10/16 00:03:02;;;;;;;1.70;1.60;;;4.70;99.90;;;;;;5010422;28;20897;-68
2023/10/16 00:05:38;;;;;;;2.40;2.20;;;4.60;99.90;;;;;;5013370;28;20433;-68
2023/10/16 00:08:07;;;;;;;4.00;2.23;;;4.70;99.90;;;;;;5029774;28;20493;-68
2023/10/16 00:10:35;;;;;;;3.47;1.90;;;4.60;99.90;;;;;;5031847;28;20984;-67
2023/10/16 00:13:05;;;;;;;4.23;2.10;;;4.60;99.90;;;;;;5031238;28;20555;-68
2023/10/16 00:15:44;;;;;;;3.90;2.10;;;4.50;99.90;;;;;;5018237;28;20939;-67
2023/10/16 00:18:17;;;;;;;2.50;1.83;;;4.50;99.90;;;;;;5007137;28;20964;-68
2023/10/16 00:20:43;;;;;;;4.27;2.40;;;4.50;99.90;;;;;;5019182;28;21072;-67
2023/10/16 00:23:10;;;;;;;3.13;2.90;;;4.50;99.90;;;;;;5025709;28;20538;-70
2023/10/16 00:25:40;;;;;;;4.23;2.60;;;4.40;99.90;;;;;;5020085;28;20178;-70
2023/10/16 00:28:10;;;;;;;2.90;1.90;;;4.40;99.90;;;;;;5011704;28;20422;-69
2023/10/16 00:30:38;;;;;;;3.33;1.90;;;4.40;99.90;;;;;;5013731;28;20458;-70
2023/10/16 00:33:06;;;;;;;2.40;2.20;;;4.40;99.90;;;;;;5011840;28;20429;-70
2023/10/16 00:35:32;;;;;;;4.57;2.30;;;4.40;99.90;;;;;;4994500;28;20935;-69
2023/10/16 00:37:58;;;;;;;2.77;2.53;;;4.30;99.90;;;;;;5016889;28;20444;-70
2023/10/16 00:40:33;;;;;;;2.37;1.80;;;4.30;99.90;;;;;;5020412;28;20227;-69
2023/10/16 00:43:12;;;;;;;2.67;2.07;;;4.30;99.90;;;;;;5021580;28;20565;-69
2023/10/16 00:46:27;;;;;;;2.33;2.13;;;4.20;99.90;;;;;;5011784;28;20418;-69
2023/10/16 00:48:55;;;;;;;2.70;2.10;;;4.20;99.90;;;;;;4930517;29;20445;-69
2023/10/16 00:51:21;;;;;;;2.77;2.47;;;4.10;99.90;;;;;;4933033;29;20441;-69
2023/10/16 00:53:47;;;;;;;2.70;2.40;;;4.10;99.90;;;;;;4995973;28;20755;-69
2023/10/16 00:56:18;;;;;;;3.37;2.40;;;4.00;99.90;;;;;;5021207;28;20178;-69
2023/10/16 00:58:46;;;;;;;2.43;2.27;;;4.00;99.90;;;;;;5016861;28;20179;-69
2023/10/16 01:01:12;;;;;;;2.77;2.40;;;4.00;99.90;;;;;;5018248;28;20456;-69
2023/10/16 01:03:40;;;;;;;3.10;2.80;;;3.90;99.90;;;;;;5027971;28;21009;-70
2023/10/16 01:06:15;;;;;;;7.53;2.53;;;3.90;99.90;;;;;;5019432;28;20193;-70
2023/10/16 01:08:51;;;;;;;2.40;1.97;;;3.90;99.90;;;;;;5011749;28;20494;-70
2023/10/16 01:11:22;;;;;;;3.67;2.20;;;3.90;99.90;;;;;;5002678;28;20978;-69
2023/10/16 01:13:48;;;;;;;2.87;2.63;;;4.00;99.90;;;;;;5001313;28;20446;-70
2023/10/16 01:16:17;;;;;;;3.00;2.20;;;4.00;99.90;;;;;;5003673;28;21188;-70
2023/10/16 01:18:44;;;;;;;2.50;2.30;;;4.00;99.90;;;;;;5011341;28;20444;-69
2023/10/16 01:21:13;;;;;;;1.90;1.70;;;4.00;99.90;;;;;;5014936;28;20477;-69
2023/10/16 01:23:40;;;;;;;2.57;2.20;;;4.00;99.90;;;;;;5032602;28;20452;-70
2023/10/16 01:26:06;;;;;;;3.47;2.20;;;3.90;99.90;;;;;;5019308;28;20521;-70
2023/10/16 01:28:32;;;;;;;4.40;2.87;;;3.90;99.90;;;;;;5014412;28;20449;-70
2023/10/16 01:31:00;;;;;;;2.27;2.07;;;3.90;99.90;;;;;;5029287;28;20432;-69
2023/10/16 01:33:25;;;;;;;3.33;1.93;;;3.90;99.90;;;;;;5030919;28;20273;-69
2023/10/16 01:35:51;;;;;;;3.40;2.50;;;3.90;99.90;;;;;;5034875;28;20980;-70
2023/10/16 01:38:17;;;;;;;2.87;2.67;;;3.80;99.90;;;;;;5024330;28;20178;-70
2023/10/16 01:40:47;;;;;;;4.93;2.20;;;3.80;99.90;;;;;;5017417;28;20559;-69
2023/10/16 01:43:16;;;;;;;2.67;2.37;;;3.80;99.90;;;;;;5012862;28;20461;-69
2023/10/16 01:46:01;;;;;;;3.30;2.30;;;3.80;99.90;;;;;;5029337;28;20433;-70
2023/10/16 01:48:29;;;;;;;4.27;2.40;;;3.70;99.90;;;;;;5032896;28;20420;-69
2023/10/16 01:50:56;;;;;;;2.40;2.13;;;3.70;99.90;;;;;;5024462;28;20547;-70
2023/10/16 01:53:25;;;;;;;2.80;2.13;;;3.70;99.90;;;;;;5034097;28;20436;-69
2023/10/16 01:55:54;;;;;;;4.10;2.70;;;3.70;99.90;;;;;;5004233;28;20461;-69
2023/10/16 01:58:23;;;;;;;2.53;2.33;;;3.70;99.90;;;;;;5014668;28;20811;-70
2023/10/16 02:00:49;;;;;;;3.70;1.93;;;3.70;99.90;;;;;;5023266;28;20456;-69
2023/10/16 02:03:17;;;;;;;2.57;1.90;;;3.60;99.90;;;;;;5014149;28;20461;-69
2023/10/16 02:05:45;;;;;;;2.60;2.40;;;3.60;99.90;;;;;;5014562;28;20935;-70
2023/10/16 02:08:12;;;;;;;2.20;2.10;;;3.60;99.90;;;;;;5029791;28;20757;-70
2023/10/16 02:10:38;;;;;;;2.50;2.30;;;3.60;99.90;;;;;;5012854;28;20450;-69
2023/10/16 02:13:04;;;;;;;4.47;2.33;;;3.60;99.90;;;;;;5021013;28;20420;-70
2023/10/16 02:15:29;;;;;;;4.80;2.60;;;3.60;99.90;;;;;;5034214;28;20686;-69
2023/10/16 02:17:55;;;;;;;2.43;1.90;;;3.60;99.90;;;;;;5032582;28;20553;-69
2023/10/16 02:20:26;;;;;;;2.70;2.30;;;3.50;99.90;;;;;;5026734;28;20171;-70
2023/10/16 02:22:53;;;;;;;3.00;1.97;;;3.40;99.90;;;;;;5013949;28;20563;-69
2023/10/16 02:25:19;;;;;;;2.60;2.40;;;3.30;99.90;;;;;;5021287;28;20597;-70
2023/10/16 02:27:44;;;;;;;5.17;2.43;;;3.30;99.90;;;;;;5030741;28;20512;-69
2023/10/16 02:32:49;;;;;;;2.40;2.20;;;3.20;99.90;;;;;;5020025;28;20174;-70
2023/10/16 02:35:15;;;;;;;3.23;2.27;;;3.20;99.90;;;;;;5017596;28;20469;-70
2023/10/16 02:37:41;;;;;;;4.27;2.33;;;3.10;99.90;;;;;;4995733;28;20476;-69
2023/10/16 02:40:10;;;;;;;2.37;2.17;;;3.20;99.90;;;;;;5029237;28;20588;-69
2023/10/16 02:42:39;;;;;;;3.10;2.90;;;3.20;99.90;;;;;;5029848;28;20643;-70
2023/10/16 02:45:23;;;;;;;2.03;1.93;;;3.20;99.90;;;;;;5017723;28;20502;-69
2023/10/16 02:47:49;;;;;;;4.40;2.33;;;3.30;99.90;;;;;;5016449;28;20460;-69
2023/10/16 02:50:15;;;;;;;2.73;2.53;;;3.30;99.90;;;;;;5015044;28;20951;-69
2023/10/16 02:52:41;;;;;;;3.73;2.60;;;3.30;99.90;;;;;;5013238;28;20649;-70
2023/10/16 02:55:06;;;;;;;1.93;1.83;;;3.30;99.90;;;;;;5013153;28;20183;-70
2023/10/16 02:57:33;;;;;;;8.40;2.50;;;3.30;99.90;;;;;;5032378;28;20177;-69
2023/10/16 02:59:58;;;;;;;2.67;2.47;;;3.30;99.90;;;;;;5033153;28;20166;-70
2023/10/16 03:02:27;;;;;;;2.63;2.43;;;3.20;99.90;;;;;;5013368;28;20445;-69
2023/10/16 03:04:54;;;;;;;2.50;2.30;;;3.20;99.90;;;;;;5010278;28;20171;-69
2023/10/16 03:07:20;;;;;;;2.50;2.30;;;3.20;99.90;;;;;;5013077;28;20440;-69
2023/10/16 03:09:49;;;;;;;5.13;3.00;;;3.20;99.90;;;;;;5011940;28;20429;-70
2023/10/16 03:12:15;;;;;;;6.73;1.93;;;3.20;99.90;;;;;;5032801;28;20502;-69
2023/10/16 03:14:51;;;;;;;2.60;2.40;;;3.20;99.90;;;;;;5015969;28;20445;-69
2023/10/16 03:17:25;;;;;;;4.13;2.83;;;3.20;99.90;;;;;;5012156;28;20170;-69
2023/10/16 03:19:51;;;;;;;3.00;2.80;;;3.10;99.90;;;;;;5013085;28;20493;-69
2023/10/16 03:22:17;;;;;;;4.00;2.30;;;3.10;99.90;;;;;;5012858;28;20893;-69
2023/10/16 03:24:43;;;;;;;2.90;2.70;;;3.10;99.90;;;;;;5012436;28;20465;-69
2023/10/16 03:27:08;;;;;;;3.00;2.70;;;3.00;99.90;;;;;;5017325;28;20583;-69
2023/10/16 03:29:37;;;;;;;2.80;2.60;;;2.90;99.90;;;;;;5021021;28;20442;-70
2023/10/16 03:32:03;;;;;;;2.63;2.43;;;2.90;99.90;;;;;;5011684;28;20210;-70
2023/10/16 03:34:31;;;;;;;3.00;2.47;;;2.80;99.90;;;;;;5012162;28;20422;-70
2023/10/16 03:37:03;;;;;;;3.07;2.80;;;2.80;99.90;;;;;;5026778;28;20539;-69
2023/10/16 03:39:31;;;;;;;2.93;2.60;;;2.80;99.90;;;;;;5005636;28;20782;-70
2023/10/16 03:41:57;;;;;;;3.50;2.80;;;2.80;99.90;;;;;;5020677;28;20450;-69
2023/10/16 03:44:26;;;;;;;3.50;2.97;;;2.80;99.90;;;;;;5011155;28;20468;-70
2023/10/16 03:46:52;;;;;;;2.80;2.60;;;2.80;99.90;;;;;;5007928;28;20446;-69
2023/10/16 03:49:18;;;;;;;4.27;2.87;;;2.90;99.90;;;;;;5029432;28;20424;-69
2023/10/16 03:51:48;;;;;;;2.60;2.40;;;2.80;99.90;;;;;;5026424;28;20236;-70
2023/10/16 03:54:14;;;;;;;4.60;2.60;;;2.80;99.90;;;;;;5032027;28;20672;-69
2023/10/16 03:56:39;;;;;;;4.10;2.70;;;2.70;99.90;;;;;;5015691;28;20464;-69
2023/10/16 03:59:05;;;;;;;3.10;2.80;;;2.70;99.90;;;;;;5021885;28;20461;-69
2023/10/16 04:01:35;;;;;;;4.97;2.67;;;2.70;99.90;;;;;;5009259;28;20253;-70
2023/10/16 04:04:07;;;;;;;3.53;2.60;;;2.70;99.90;;;;;;5006995;28;20453;-69
2023/10/16 04:06:39;;;;;;;4.47;2.33;;;2.70;99.90;;;;;;5010938;28;20480;-70
2023/10/16 04:09:05;;;;;;;3.47;2.43;;;2.70;99.90;;;;;;5019089;28;20452;-69
2023/10/16 04:11:32;;;;;;;2.83;2.63;;;2.70;99.90;;;;;;5026619;28;20991;-69
2023/10/16 04:13:58;;;;;;;3.27;2.70;;;2.70;99.90;;;;;;5023900;28;20451;-69
2023/10/16 04:16:43;;;;;;;3.63;2.87;;;2.70;99.90;;;;;;5029393;28;20934;-69
2023/10/16 04:21:45;;;;;;;3.40;2.80;;;2.60;99.90;;;;;;5012109;28;20465;-69
2023/10/16 04:29:49;;;;;;;3.50;2.80;;;2.60;99.90;;;;;;5016099;28;20766;-70
2023/10/16 04:35:03;;;;;;;4.70;2.83;;;2.60;99.90;;;;;;5010039;28;20432;-70
2023/10/16 04:37:36;;;;;;;5.07;3.10;;;2.60;99.90;;;;;;5011334;28;20433;-70
2023/10/16 04:45:24;;;;;;;4.33;3.93;;;2.60;99.90;;;;;;5016762;28;20476;-69
2023/10/16 05:00:57;;;;;;;7.23;5.73;;;2.50;99.90;;;;;;5024700;28;20808;-70
2023/10/16 05:03:35;;;;;;;9.00;6.03;;;2.40;99.90;;;;;;5026038;28;20504;-70
2023/10/16 05:06:05;;;;;;;5.90;5.30;;;2.50;99.90;;;;;;5035463;28;20461;-69
2023/10/16 05:08:39;;;;;;;8.17;6.37;;;2.50;99.90;;;;;;5026300;28;20491;-70
2023/10/16 05:16:38;;;;;;;5.80;5.30;;;2.50;99.90;;;;;;5035022;28;20465;-70
2023/10/16 05:19:15;;;;;;;6.07;5.57;;;2.60;99.90;;;;;;5032846;28;20937;-70
2023/10/16 06:14:09;;;;;;;6.03;5.37;;;2.60;99.90;;;;;;5020966;28;20444;-70
2023/10/16 06:14:21;;;;;;;9.23;6.40;;;2.70;99.90;;;;;;5010627;28;20444;-69
2023/10/16 06:16:52;;;;;;;11.00;7.07;;;2.80;99.90;;;;;;5004907;28;20931;-69
2023/10/16 06:19:18;;;;;;;7.03;6.40;;;2.90;99.90;;;;;;5011520;28;20174;-69
2023/10/16 06:22:08;;;;;;;7.30;6.60;;;3.00;99.90;;;;;;5014090;28;21039;-69
2023/10/16 06:24:35;;;;;;;8.73;6.33;;;3.10;99.90;;;;;;5013912;28;20277;-69
2023/10/16 06:27:12;;;;;;;9.40;7.17;;;3.30;99.90;;;;;;5014153;28;20488;-69
2023/10/16 06:29:51;;;;;;;6.53;5.93;;;3.50;99.90;;;;;;5011738;28;20893;-69
2023/10/16 06:32:22;;;;;;;7.83;7.03;;;3.80;99.90;;;;;;5008092;28;20982;-69
2023/10/16 06:34:57;;;;;;;12.43;6.90;;;4.00;99.90;;;;;;5003949;28;20438;-70
2023/10/16 06:37:23;;;;;;;8.03;6.60;;;4.20;99.90;;;;;;5013902;28;20965;-70
2023/10/16 06:39:54;;;;;;;7.40;6.67;;;4.40;99.90;;;;;;5013842;28;20422;-70
2023/10/16 06:42:23;;;;;;;6.47;5.83;;;4.60;99.90;;;;;;5013428;28;20445;-70
2023/10/16 06:44:50;;;;;;;7.33;6.63;;;4.80;99.90;;;;;;5005459;28;20470;-70
2023/10/16 06:47:17;;;;;;;6.83;6.00;;;4.90;99.90;;;;;;5013193;28;20487;-70
2023/10/16 06:49:43;;;;;;;9.27;6.50;;;5.20;99.90;;;;;;5013718;28;20461;-70
2023/10/16 06:52:17;;;;;;;7.90;7.17;;;5.50;99.90;;;;;;5013587;28;20936;-70
2023/10/16 06:54:43;;;;;;;9.60;6.90;;;5.60;99.90;;;;;;5006605;28;20182;-70
2023/10/16 06:57:12;;;;;;;8.73;7.93;;;5.80;99.90;;;;;;5011100;28;20516;-69
2023/10/16 06:59:41;;;;;;;9.43;7.57;;;6.10;99.90;;;;;;5005119;28;20430;-69
2023/10/16 07:02:19;;;;;;;7.30;6.57;;;6.40;99.90;;;;;;5013384;28;20461;-69
2023/10/16 07:04:46;;;;;;;8.67;7.00;;;6.70;99.90;;;;;;5013004;28;20832;-69
2023/10/16 07:07:15;;;;;;;7.47;6.87;;;6.80;99.90;;;;;;5013397;28;20500;-69
2023/10/16 07:09:51;;;;;;;10.10;7.87;;;6.80;99.90;;;;;;5013203;28;20413;-69
2023/10/16 07:12:18;;;;;;;12.77;6.73;;;6.80;99.90;;;;;;5013050;28;20445;-69
2023/10/16 07:15:01;;;;;;;11.60;7.00;;;6.80;99.90;;;;;;5009219;28;20944;-69
2023/10/16 07:17:30;;;;;;;8.03;7.33;;;6.90;99.90;;;;;;5008312;28;20517;-69
2023/10/16 07:19:59;;;;;;;8.93;6.47;;;7.00;99.90;;;;;;5007292;28;20488;-69
2023/10/16 07:22:32;;;;;;;9.27;4.80;;;7.30;99.90;;;;;;5012679;28;20472;-69
2023/10/16 07:25:23;;;;;;;11.43;5.77;;;7.50;99.90;;;;;;5012993;28;21200;-69
2023/10/16 07:27:49;;;;;;;8.30;5.97;;;7.80;99.90;;;;;;5012918;28;20424;-69
2023/10/16 07:30:23;;;;;;;6.50;5.30;;;8.30;99.90;;;;;;5012975;28;20835;-69
2023/10/16 07:32:50;;;;;;;5.20;4.70;;;8.60;99.90;;;;;;5005625;28;20799;-69
2023/10/16 07:35:18;;;;;;;6.00;5.60;;;8.90;99.90;;;;;;5009560;28;20527;-69
2023/10/16 07:37:53;;;;;;;6.83;5.47;;;8.90;99.90;;;;;;5010241;28;20422;-69
2023/10/16 07:40:20;;;;;;;13.03;5.67;;;9.20;99.90;;;;;;5006292;28;20441;-69
2023/10/16 07:42:49;;;;;;;6.30;5.07;;;9.00;99.90;;;;;;5005031;28;20818;-69
2023/10/16 07:45:15;;;;;;;5.93;5.33;;;9.10;99.90;;;;;;5012734;28;20634;-69
2023/10/16 07:47:41;;;;;;;5.27;4.77;;;9.20;99.90;;;;;;5012561;28;20410;-69
2023/10/16 07:50:07;;;;;;;6.30;5.80;;;9.60;99.90;;;;;;5012715;28;20796;-69
2023/10/16 07:52:34;;;;;;;6.00;5.50;;;10.00;99.90;;;;;;5011511;28;20808;-69
2023/10/16 07:55:01;;;;;;;4.93;4.53;;;10.10;99.90;;;;;;5012426;28;20428;-69
2023/10/16 07:57:27;;;;;;;6.47;4.17;;;10.60;99.90;;;;;;5012434;28;20508;-70
2023/10/16 07:59:54;;;;;;;4.90;4.50;;;10.80;99.90;;;;;;5012515;28;21017;-70
2023/10/16 08:02:20;;;;;;;5.23;4.23;;;11.10;99.90;;;;;;5012277;28;20225;-69
2023/10/16 08:04:51;;;;;;;7.23;6.63;;;11.30;99.90;;;;;;5012075;28;20457;-70
2023/10/16 08:07:18;;;;;;;7.37;5.40;;;11.70;99.90;;;;;;5012362;28;20461;-69
2023/10/16 08:09:57;;;;;;;6.40;4.70;;;12.10;99.90;;;;;;5011519;28;20448;-70
2023/10/16 08:12:35;;;;;;;5.53;5.00;;;12.30;99.90;;;;;;5012029;28;20464;-69
2023/10/16 08:15:09;;;;;;;4.93;4.53;;;12.70;99.90;;;;;;5012358;28;20420;-69
2023/10/16 08:17:36;;;;;;;4.50;4.10;;;13.10;99.90;;;;;;5012258;28;20449;-69
2023/10/16 08:20:06;;;;;;;4.60;4.20;;;13.50;99.90;;;;;;5012276;28;20903;-68
2023/10/16 08:22:33;;;;;;;6.03;4.37;;;14.10;99.90;;;;;;5011823;28;20465;-69
2023/10/16 08:24:59;;;;;;;7.27;4.80;;;14.60;99.90;;;;;;5011859;28;20866;-68
2023/10/16 08:30:18;;;;;;;4.57;4.27;;;15.60;95.20;;;;;;5008647;28;20468;-70
2023/10/16 08:35:17;;;;;;;3.70;3.50;;;15.60;93.80;;;;;;4996597;28;20801;-66
2023/10/16 08:37:43;;;;;;;4.47;4.17;;;16.10;91.50;;;;;;4996398;28;20438;-67
2023/10/16 08:40:19;;;;;;;3.93;3.53;;;16.20;89.80;;;;;;4996341;28;20433;-67
2023/10/16 08:43:00;;;;;;;3.17;2.87;;;15.90;90.00;;;;;;5003329;28;20465;-68
2023/10/16 08:45:28;;;;;;;3.47;3.17;;;15.90;90.10;;;;;;4998463;28;20532;-67
2023/10/16 08:47:56;;;;;;;4.70;3.20;;;16.70;85.80;;;;;;5015787;28;20410;-68
2023/10/16 08:50:25;;;;;;;4.73;3.97;;;16.80;81.80;;;;;;5015932;28;20544;-68
2023/10/16 08:52:57;;;;;;;2.87;2.70;;;16.80;82.60;;;;;;5015498;28;20919;-67
2023/10/16 08:55:26;;;;;;;3.67;3.33;;;16.90;80.40;;;;;;5015812;28;20416;-68
2023/10/16 08:57:52;;;;;;;3.60;3.30;;;17.00;80.60;;;;;;5014989;28;20414;-67
2023/10/16 09:00:22;;;;;;;4.10;3.70;;;17.40;77.30;;;;;;5007258;28;20460;-68
2023/10/16 09:02:51;;;;;;;5.33;3.00;;;17.00;76.90;;;;;;5015241;28;20843;-68
2023/10/16 09:05:17;;;;;;;3.90;3.60;;;17.80;73.20;;;;;;5015561;28;20424;-68
2023/10/16 09:07:43;;;;;;;4.00;3.40;;;17.40;74.00;;;;;;5015465;28;20414;-68
2023/10/16 09:10:11;;;;;;;3.43;3.10;;;17.90;70.80;;;;;;5015517;28;20167;-66
2023/10/16 09:12:52;;;;;;;5.53;3.23;;;18.60;68.30;;;;;;5015235;28;20645;-68
2023/10/16 09:15:24;;;;;;;3.87;3.40;;;19.00;66.20;;;;;;5013815;28;20440;-68
2023/10/16 09:17:51;;;;;;;5.37;3.50;;;19.50;63.30;;;;;;5015274;28;20479;-67
2023/10/16 09:20:18;;;;;;;4.77;3.50;;;18.60;63.20;;;;;;5014167;28;20947;-67
2023/10/16 09:22:47;;;;;;;4.70;3.83;;;18.90;65.10;;;;;;5014951;28;20455;-68
2023/10/16 09:25:15;;;;;;;4.80;4.40;;;19.70;62.60;;;;;;5015210;28;20931;-67
2023/10/16 09:27:42;;;;;;;3.80;3.50;;;19.30;60.50;;;;;;5015148;28;20468;-68
2023/10/16 09:30:14;;;;;;;4.27;3.97;;;19.40;59.60;;;;;;5015168;28;20505;-67
2023/10/16 09:32:40;;;;;;;5.03;4.60;;;19.50;60.90;;;;;;5014869;28;20420;-67
2023/10/16 09:35:12;;;;;;;4.20;3.90;;;20.30;59.70;;;;;;5007152;28;20434;-66
2023/10/16 09:37:39;;;;;;;4.70;4.30;;;20.60;57.20;;;;;;5014732;28;20874;-67
2023/10/16 09:40:35;;;;;;;4.30;4.00;;;21.30;55.70;;;;;;5014324;28;20625;-64
2023/10/16 09:43:08;;;;;;;5.60;4.47;;;22.30;54.20;;;;;;5014453;28;20461;-64
2023/10/16 09:45:35;;;;;;;4.73;4.23;;;23.90;51.30;;;;;;5013581;28;20418;-65
2023/10/16 09:48:08;;;;;;;4.20;3.33;;;24.90;47.50;;;;;;5014008;28;20440;-66
2023/10/16 09:50:38;;;;;;;5.30;3.93;;;26.00;44.00;;;;;;5011407;28;20446;-65
2023/10/16 09:53:06;;;;;;;3.53;3.07;;;25.60;41.50;;;;;;5014178;28;20859;-64
2023/10/16 09:55:44;;;;;;;3.60;3.27;;;25.20;40.70;;;;;;5014323;28;20437;-66
2023/10/16 09:58:11;;;;;;;4.27;2.90;;;25.20;39.80;;;;;;5012089;28;20432;-69
2023/10/16 10:00:45;;;;;;;4.00;2.90;;;25.80;38.90;;;;;;5014216;28;20507;-64
2023/10/16 10:03:14;;;;;;;3.80;3.50;;;26.80;37.20;;;;;;5011335;28;21185;-67
2023/10/16 10:05:49;;;;;;;4.57;3.40;;;26.30;36.40;;;;;;5013290;28;20445;-68
2023/10/16 10:08:27;;;;;;;4.97;3.47;;;26.50;35.80;;;;;;5014337;28;20429;-66
2023/10/16 10:13:47;;;;;;;3.90;3.57;;;25.70;36.10;;;;;;5014069;28;20449;-67
2023/10/16 10:16:20;;;;;;;4.67;4.20;;;24.80;36.90;;;;;;5014260;28;20432;-65
2023/10/16 10:18:47;;;;;;;4.70;4.00;;;24.90;36.90;;;;;;5014247;28;20424;-66
2023/10/16 10:21:44;;;;;;;3.80;3.40;;;25.50;35.80;;;;;;5013292;28;20481;-67
2023/10/16 10:24:15;;;;;;;4.80;4.40;;;26.40;34.90;;;;;;5004459;28;20509;-68
2023/10/16 10:26:48;;;;;;;4.00;3.10;;;26.10;33.70;;;;;;4994607;28;20807;-67
2023/10/16 10:29:14;;;;;;;4.80;4.40;;;27.00;33.30;;;;;;4994467;28;20433;-68
2023/10/16 10:31:45;;;;;;;5.50;4.10;;;27.80;33.00;;;;;;4994302;28;20442;-68
2023/10/16 10:34:27;;;;;;;5.17;4.43;;;27.70;32.70;;;;;;4996924;28;20473;-68
2023/10/16 10:36:53;;;;;;;4.03;3.70;;;28.70;31.10;;;;;;5007585;28;20434;-66
2023/10/16 10:39:22;;;;;;;3.43;3.17;;;28.60;30.30;;;;;;5013972;28;20476;-66
2023/10/16 10:41:58;;;;;;;3.23;3.03;;;27.10;30.10;;;;;;5013633;28;20516;-66
2023/10/16 10:44:30;;;;;;;4.90;4.40;;;26.50;31.10;;;;;;5013490;28;20465;-66
2023/10/16 10:46:56;;;;;;;6.07;4.50;;;27.30;30.80;;;;;;5013510;28;20418;-66
2023/10/16 10:49:34;;;;;;;3.93;3.63;;;28.50;30.70;;;;;;5011517;28;20443;-66
2023/10/16 10:52:05;;;;;;;5.40;3.40;;;28.30;29.10;;;;;;5008268;28;20415;-69
2023/10/16 10:54:31;;;;;;;3.87;3.57;;;26.70;29.20;;;;;;5012892;28;20425;-69
2023/10/16 10:57:06;;;;;;;3.23;3.00;;;26.50;30.00;;;;;;5013087;28;20479;-68
2023/10/16 10:59:39;;;;;;;3.47;3.13;;;27.60;29.30;;;;;;5013375;28;20179;-68
2023/10/16 11:02:20;;;;;;;4.20;3.90;;;27.30;29.10;;;;;;5013496;28;20477;-68
2023/10/16 11:04:53;;;;;;;8.77;3.93;;;27.50;29.30;;;;;;5004082;28;20476;-66
2023/10/16 11:07:28;;;;;;;5.73;5.13;;;28.60;29.10;;;;;;5013286;28;20500;-66
2023/10/16 11:09:57;;;;;;;4.13;3.80;;;28.50;29.00;;;;;;5013294;28;20425;-66
2023/10/16 11:12:26;;;;;;;4.80;3.80;;;28.20;28.70;;;;;;5013179;28;20444;-68
2023/10/16 11:14:54;;;;;;;4.30;3.70;;;26.70;29.10;;;;;;5012940;28;20436;-68
2023/10/16 11:17:39;;;;;;;8.40;3.00;;;25.40;29.80;;;;;;5013175;28;20440;-67
2023/10/16 11:22:44;;;;;;;3.03;2.60;;;26.30;30.00;;;;;;5013447;28;20429;-68
2023/10/16 11:25:14;;;;;;;3.00;2.67;;;27.60;29.00;;;;;;5012692;28;20536;-68
2023/10/16 11:27:43;;;;;;;2.90;2.70;;;27.00;28.90;;;;;;5012959;28;20500;-68
2023/10/16 11:30:13;;;;;;;3.13;2.57;;;26.60;29.30;;;;;;5012959;28;20500;-68
2023/10/16 11:32:45;;;;;;;3.90;2.30;;;27.60;29.10;;;;;;5012541;28;20484;-67
2023/10/16 11:35:15;;;;;;;2.40;2.20;;;27.00;27.90;;;;;;5008536;28;20513;-67
2023/10/16 11:37:50;;;;;;;2.47;2.27;;;27.10;28.60;;;;;;5011713;28;20430;-67
2023/10/16 11:40:19;;;;;;;3.23;2.80;;;26.60;29.70;;;;;;5012501;28;20779;-68
2023/10/16 11:42:48;;;;;;;2.67;2.13;;;27.60;28.40;;;;;;5012317;28;20414;-68
2023/10/16 11:45:24;;;;;;;3.63;3.23;;;28.50;27.30;;;;;;5012815;28;20919;-68
2023/10/16 11:50:40;;;;;;;2.00;1.90;;;29.40;27.10;;;;;;5009027;28;20858;-68
2023/10/16 11:53:09;;;;;;;3.20;2.37;;;30.20;26.20;;;;;;5007749;28;20511;-67
2023/10/16 11:55:38;;;;;;;4.20;3.43;;;30.50;25.80;;;;;;5012519;28;20848;-67
2023/10/16 11:58:06;;;;;;;2.70;2.13;;;31.50;25.20;;;;;;5012494;28;20927;-67
2023/10/16 12:00:35;;;;;;;3.13;2.83;;;31.90;24.30;;;;;;5012509;28;20575;-68
2023/10/16 12:03:01;;;;;;;2.57;2.37;;;32.80;23.70;;;;;;5011851;28;20426;-68
2023/10/16 12:05:28;;;;;;;3.10;2.20;;;33.00;23.10;;;;;;5012376;28;20417;-67
2023/10/16 12:07:56;;;;;;;3.80;2.43;;;32.10;23.00;;;;;;5009168;28;20512;-68
2023/10/16 12:10:22;;;;;;;2.60;2.30;;;30.40;24.10;;;;;;5003036;28;20513;-67
2023/10/16 12:12:49;;;;;;;4.73;4.20;;;29.80;24.20;;;;;;5011229;28;20534;-68
2023/10/16 12:15:15;;;;;;;2.77;2.57;;;30.70;24.10;;;;;;5003285;28;20191;-68
2023/10/16 12:17:43;;;;;;;3.87;3.60;;;30.90;24.00;;;;;;5011999;28;20779;-68
2023/10/16 12:20:10;;;;;;;2.80;2.60;;;30.60;24.00;;;;;;5012204;28;20194;-68
2023/10/16 12:22:39;;;;;;;2.50;2.00;;;28.90;24.40;;;;;;5011764;28;20452;-68
2023/10/16 12:25:10;;;;;;;2.50;2.30;;;28.50;24.60;;;;;;5012080;28;20460;-70
2023/10/16 12:27:39;;;;;;;2.97;2.57;;;30.00;24.40;;;;;;5012080;28;20450;-68
2023/10/16 12:30:05;;;;;;;2.57;2.37;;;31.30;23.60;;;;;;5003320;28;20430;-67
2023/10/16 12:32:34;;;;;;;2.47;2.27;;;31.00;23.40;;;;;;5010700;28;20495;-70
2023/10/16 12:35:02;;;;;;;3.30;2.80;;;29.60;24.10;;;;;;5011745;28;20551;-70
2023/10/16 12:37:28;;;;;;;2.30;2.00;;;28.90;24.10;;;;;;5011637;28;20767;-69
2023/10/16 12:39:55;;;;;;;1.90;1.80;;;28.00;24.80;;;;;;5005691;28;20526;-68
2023/10/16 12:42:21;;;;;;;1.73;1.63;;;28.10;23.00;;;;;;5009429;28;20198;-69
2023/10/16 12:44:47;;;;;;;2.40;2.20;;;27.00;24.10;;;;;;5011475;28;20450;-69
2023/10/16 12:47:15;;;;;;;1.77;1.67;;;28.20;25.00;;;;;;5011919;28;20428;-68
2023/10/16 12:49:41;;;;;;;2.10;1.90;;;29.90;23.10;;;;;;5011910;28;20209;-69
2023/10/16 12:52:07;;;;;;;1.90;1.80;;;31.00;22.10;;;;;;5011789;28;20488;-69
2023/10/16 12:54:33;;;;;;;2.20;1.87;;;32.50;21.40;;;;;;5001591;28;20967;-69
2023/10/16 12:56:59;;;;;;;1.80;1.70;;;32.20;20.80;;;;;;5011814;28;20193;-69
2023/10/16 12:59:27;;;;;;;1.93;1.83;;;30.70;21.70;;;;;;5011616;28;20175;-69
2023/10/16 13:01:53;;;;;;;2.03;1.73;;;30.80;22.10;;;;;;5011682;28;20971;-69
2023/10/16 13:04:19;;;;;;;3.70;2.43;;;31.00;22.70;;;;;;5011468;28;20464;-69
2023/10/16 13:06:45;;;;;;;3.10;2.13;;;31.50;22.80;;;;;;5011768;28;20221;-69
2023/10/16 13:09:16;;;;;;;2.33;2.13;;;32.40;22.30;;;;;;5010327;28;20464;-69
2023/10/16 13:11:42;;;;;;;3.67;2.43;;;32.50;22.10;;;;;;4998477;28;20469;-69
2023/10/16 13:14:08;;;;;;;3.23;2.13;;;31.90;22.10;;;;;;5011298;28;20800;-69
2023/10/16 13:16:33;;;;;;;2.23;1.97;;;32.20;22.10;;;;;;5011624;28;20425;-69
2023/10/16 13:19:00;;;;;;;2.37;2.17;;;32.30;22.20;;;;;;5012306;28;20175;-69
2023/10/16 13:21:35;;;;;;;2.10;2.00;;;32.00;22.20;;;;;;5015101;28;20214;-69
2023/10/16 13:24:04;;;;;;;2.83;2.63;;;32.60;22.30;;;;;;5014176;28;20544;-69
2023/10/16 13:26:31;;;;;;;3.17;2.67;;;32.90;21.40;;;;;;5015062;28;20429;-69
2023/10/16 13:28:57;;;;;;;2.70;2.40;;;33.20;21.20;;;;;;5015170;28;21120;-69
2023/10/16 13:31:23;;;;;;;2.33;2.23;;;31.60;21.90;;;;;;5014951;28;20536;-69
2023/10/16 13:33:50;;;;;;;2.43;2.23;;;30.20;23.00;;;;;;4997304;28;20171;-69
2023/10/16 13:36:17;;;;;;;1.90;1.80;;;29.50;23.20;;;;;;5014514;28;20432;-69
2023/10/16 13:38:44;;;;;;;2.60;2.40;;;29.00;23.80;;;;;;5015118;28;20804;-69
2023/10/16 13:41:19;;;;;;;2.73;2.53;;;26.80;24.50;;;;;;5006289;28;20501;-69
2023/10/16 13:43:46;;;;;;;2.00;1.90;;;24.70;26.00;;;;;;4998147;28;20559;-69
2023/10/16 13:46:13;;;;;;;2.43;2.20;;;23.30;28.00;;;;;;5014783;28;20859;-69
2023/10/16 13:48:45;;;;;;;2.80;2.23;;;22.50;29.00;;;;;;5014769;28;20476;-68
2023/10/16 13:51:13;;;;;;;3.30;2.43;;;22.00;29.40;;;;;;5014762;28;20429;-69
2023/10/16 13:53:38;;;;;;;2.83;2.50;;;21.00;30.00;;;;;;5014231;28;21037;-69
2023/10/16 13:56:05;;;;;;;2.60;2.40;;;20.10;31.40;;;;;;5006285;28;20513;-70
2023/10/16 13:58:30;;;;;;;2.53;2.33;;;19.00;33.00;;;;;;5013426;28;20201;-70
2023/10/16 14:00:57;;;;;;;2.90;2.70;;;17.50;35.30;;;;;;5014435;28;20441;-70
2023/10/16 14:03:24;;;;;;;2.30;2.10;;;16.70;37.10;;;;;;5014160;28;20195;-68
2023/10/16 14:05:54;;;;;;;3.53;3.30;;;16.00;38.40;;;;;;5014478;28;20425;-68
2023/10/16 14:08:26;;;;;;;4.63;2.70;;;15.40;40.10;;;;;;5014447;28;20420;-70
2023/10/16 14:10:52;;;;;;;3.67;3.13;;;15.10;41.00;;;;;;5014372;28;20468;-70
2023/10/16 14:13:26;;;;;;;3.60;3.30;;;14.80;42.10;;;;;;5004242;28;20435;-70
2023/10/16 14:15:57;;;;;;;3.33;2.70;;;14.40;43.00;;;;;;5014257;28;20510;-70
2023/10/16 14:18:29;;;;;;;3.03;2.30;;;14.40;43.70;;;;;;5014176;28;20463;-71
2023/10/16 14:20:56;;;;;;;5.47;2.90;;;14.40;43.50;;;;;;5014016;28;20835;-71
2023/10/16 14:23:32;;;;;;;3.00;2.47;;;14.30;43.60;;;;;;5013799;28;20857;-70
2023/10/16 14:25:58;;;;;;;3.10;2.37;;;14.10;43.90;;;;;;5014106;28;20422;-70
2023/10/16 14:28:32;;;;;;;4.00;2.53;;;14.00;44.30;;;;;;5011818;28;20452;-70
2023/10/16 14:31:09;;;;;;;3.47;3.17;;;13.80;45.10;;;;;;5007534;28;20611;-70
2023/10/16 14:33:39;;;;;;;3.70;2.00;;;13.80;44.90;;;;;;5013750;28;20423;-71
2023/10/16 14:36:06;;;;;;;2.10;2.00;;;13.70;45.40;;;;;;5013976;28;20406;-70
2023/10/16 14:38:33;;;;;;;16.43;3.37;;;13.70;45.60;;;;;;5013744;28;20426;-70
2023/10/16 14:41:04;;;;;;;2.67;2.17;;;13.70;45.60;;;;;;5013707;28;20500;-70
2023/10/16 14:43:34;;;;;;;1.90;1.80;;;13.70;46.00;;;;;;5013196;28;20507;-70